Tiempo atmosférico en la estación meteorológica de San José del Valle, Cádiz (105 m.)



Fecha
DESCASC
Temp. máxima en grados centígrados (hora)
DESCASC
Temp. mínima en grados centígrados (hora)
DESCASC
Temp. media en grados centígrados
DESCASC
Racha de viento máxima en m/sg (hora)
DESCASC
Velocidad máxima media en intervalos de 10 minutos(hora)
DESCASC
Precipitaciones diarias en mm
DESCASC
Precipitaciones de 00:00 a 06:00 en mm
DESCASC
Precipitaciones de 06:00 a 12:00 en mm
DESCASC
Precipitaciones de 12:00 a 18:00 en mm
DESCASC
Precipitaciones de 18:00 a 24:00 en mm
DESCASC
13-01-2021 13.5 (16:20) 2.3 (08:10) 7.9 4.17 (14:30) 2.5 (21:10) 0 0 0 0 0
12-01-2021 13.2 (15:20) 2.2 (08:00) 7.7 5 (16:10) 2.5 (23:10) 0 0 0 0 0
11-01-2021 11.5 (15:20) 2.9 (09:00) 7.2 5.83 (16:10) 2.22 (04:40) 0 0 0 0 0
10-01-2021 8.8 (16:30) 3.4 (02:40) 6.1 3.89 (20:10) 2.22 (20:00) 1 0.2 0.8 0 0
09-01-2021 11.7 (15:50) 4 (00:00) 7.8 8.89 (13:50) 3.89 (13:50) 4.8 0.2 0 3.4 1.2
08-01-2021 15.3 (17:20) 7.9 (00:00) 11.6 14.17 (12:10) 10 (12:10) 24.8 4.4 8.2 2.6 9.6
07-01-2021 9.7 (17:50) 7.9 (00:00) 8.8 5 (07:20) 1.94 (04:20) 22 1 2.4 4 14.6
06-01-2021 13.6 (13:10) 4.9 (00:00) 9.3 10 (15:00) 7.22 (16:10) 10.2 0 0 0 10.2
05-01-2021 12.6 (16:10) 5.6 (00:00) 9.1 3.33 (19:40) 1.94 (11:00) 0 0 0 0 0
04-01-2021 12.4 (15:20) 2 (00:00) 7.2 5 (15:30) 1.94 (16:20) 0 0 0 0 0
03-01-2021 11.8 (15:30) 1.2 (00:00) 6.5 4.17 (16:20) 1.67 (15:00) 0 0 0 0 0
02-01-2021 11 (16:10) 3.2 (00:00) 7.1 5.56 (22:20) 2.22 (01:00) 0 0 0 0 0
01-01-2021 12.8 (16:00) 5.8 (00:00) 9.3 6.11 (13:00) 2.5 (12:40) 2.4 2.4 0 0 0
31-12-2020 13 (16:30) 2.5 (00:00) 7.8 5.28 (12:30) 2.5 (13:50) 1.2 0 0 0 1.2
30-12-2020 12.6 (15:10) 3.8 (00:00) 8.2 5.56 (14:30) 2.5 (18:10) 0 0 0 0 0
29-12-2020 14.4 (15:20) 4.8 (00:00) 9.6 6.39 (16:40) 2.5 (16:40) 0.2 0 0.2 0 0
28-12-2020 14.6 (11:40) 5.6 (00:00) 10.1 8.89 (12:00) 3.06 (11:50) 4 0 0 4 0
27-12-2020 14.9 (15:40) 5.4 (00:00) 10.1 4.17 (14:50) 1.67 (10:20) 0 0 0 0 0
26-12-2020 15.5 (14:50) 6.2 (00:00) 10.8 6.39 (14:40) 2.5 (15:50) 0 0 0 0 0
25-12-2020 17.7 (15:20) 8.2 (00:00) 13 3.61 (16:00) 1.67 (13:30) 0 0 0 0 0
24-12-2020 17.3 (15:40) 10.5 (00:00) 13.9 5.28 (14:10) 2.22 (14:10) 0 0 0 0 0
23-12-2020 19.3 (14:10) 9.7 (00:00) 14.5 6.39 (13:00) 3.06 (13:20) 0 0 0 0 0
22-12-2020 20.6 (15:00) 9.3 (00:00) 15 4.17 (14:00) 1.94 (14:00) 0 0 0 0 0
21-12-2020 18.4 (16:10) 7.3 (00:00) 12.8 3.33 (14:40) 1.67 (14:30) 0 0 0 0 0
20-12-2020 16.3 (16:20) 11.6 (00:00) 13.9 6.11 (23:50) 2.78 (09:20) 0.2 0.2 0 0 0
19-12-2020 15.5 (16:20) 9.6 (00:00) 12.6 9.72 (22:50) 5.56 (22:50) 0.8 0 0.2 0 0.6
18-12-2020 17.8 (16:30) 8.1 (00:00) 12.9 3.61 (17:10) 1.39 (14:40) 0 0 0 0 0

Gráficas

Temp. máximas Temp. mínimas Temp. medias Precipitaciones Rachas de viento máximas Velocidades máximas media en intervalos de 10 minutos

Datos horarios

Fecha y hora oficial Temperatura (ºC) Velocidad del viento (km/h) Dirección del viento Racha (km/h) Dirección de racha Precipitación (mm) Presión (hPa) Tendencia (hPa) Humedad (%)
2021-01-16 23:00:00 7.7 0 Calma 3 Este 0 -- -- 89
2021-01-16 22:00:00 9.1 0 Calma 9 Norte 0 -- -- 76
2021-01-16 21:00:00 9.4 0 Calma 6 Sur 0 -- -- 72
2021-01-16 20:00:00 11.3 4 Sur 11 Sudoeste 0 -- -- 62
2021-01-16 19:00:00 11.9 5 Sudoeste 10 Sudoeste 0 -- -- 57
2021-01-16 18:00:00 15.1 5 Sudoeste 15 Norte 0 -- -- 48
2021-01-16 17:00:00 17.4 6 Norte 20 Norte 0 -- -- 31
2021-01-16 16:00:00 17.9 7 Norte 26 Nordeste 0 -- -- 29
2021-01-16 15:00:00 17.6 13 Norte 24 Nordeste 0 -- -- 28
2021-01-16 14:00:00 16.6 5 Norte 24 Nordeste 0 -- -- 34
2021-01-16 13:00:00 13.1 4 Sur 10 Sur 0 -- -- 63
2021-01-16 12:00:00 9.6 3 Sudeste 8 Sur 0 -- -- 70
2021-01-16 11:00:00 7.3 2 Sudoeste 5 Sudeste 0 -- -- 83
2021-01-16 10:00:00 5.1 3 Este 6 Sudeste 0 -- -- 98
2021-01-16 09:00:00 3.3 0 Calma 4 Norte 0 -- -- 99
2021-01-16 08:00:00 3.3 0 Calma 6 Este 0 -- -- 98
2021-01-16 07:00:00 4.2 0 Calma 4 Este 0 -- -- 99
2021-01-16 06:00:00 3.6 0 Calma 6 Sudeste 0 -- -- 98
2021-01-16 05:00:00 4.8 0 Calma 6 Este 0 -- -- 98
2021-01-16 04:00:00 4.3 0 Calma 3 Norte 0 -- -- 97
2021-01-16 03:00:00 4.4 0 Calma 3 Sudeste 0 -- -- 97
2021-01-16 02:00:00 4.7 0 Calma 4 Sur 0 -- -- 96
2021-01-16 01:00:00 5.3 0 Calma 5 Sudeste 0 -- -- 96
2021-01-16 00:00:00 5.8 0 Calma 4 Este 0 -- -- 95
2021-01-15 23:00:00 6 2 Norte 7 Oeste 0 -- -- 93
2021-01-15 22:00:00 6.7 4 Oeste 10 Oeste 0 -- -- 90
2021-01-15 21:00:00 7.7 3 Oeste 21 Noroeste 0 -- -- 84
2021-01-15 20:00:00 9.4 9 Noroeste 15 Noroeste 0 -- -- 71
2021-01-15 19:00:00 10 4 Oeste 12 Oeste 0 -- -- 75
2021-01-15 18:00:00 12.3 4 Noroeste 17 Norte 0 -- -- 66
2021-01-15 17:00:00 13.4 5 Norte 17 Noroeste 0 -- -- 62
2021-01-15 16:00:00 13.3 6 Noroeste 14 Noroeste 0 -- -- 64
2021-01-15 15:00:00 12 5 Noroeste 11 Noroeste 0 -- -- 71
2021-01-15 14:00:00 10.1 4 Noroeste 12 Noroeste 0 -- -- 80
2021-01-15 13:00:00 7.1 3 Sudeste 5 Sudeste 0 -- -- 99
2021-01-15 12:00:00 5 3 Sudeste 5 Sudeste 0 -- -- 100
2021-01-15 11:00:00 3.3 0 Calma 4 Sudeste 0 -- -- 100
2021-01-15 10:00:00 2.9 2 Este 5 Sudeste 0 -- -- 99
2021-01-15 09:00:00 3 2 Norte 6 Norte 0 -- -- 99
2021-01-15 08:00:00 3.2 0 Calma 4 Este 0 -- -- 99
2021-01-15 07:00:00 3.3 0 Calma 3 Este 0 -- -- 99
2021-01-15 06:00:00 3.3 0 Calma 6 Sudeste 0 -- -- 98
2021-01-15 05:00:00 3.8 2 Este 6 Este 0 -- -- 99
2021-01-15 04:00:00 4.3 2 Este 6 Este 0 -- -- 98
2021-01-15 03:00:00 4.9 0 Calma 5 Sudeste 0 -- -- 98
2021-01-15 02:00:00 5.1 3 Sudeste 6 Sudeste 0 -- -- 98
2021-01-15 01:00:00 5.2 3 Este 8 Este 0 -- -- 97
2021-01-15 00:00:00 6 3 Este 8 Este 0 -- -- 97
2021-01-14 23:00:00 5.2 0 Calma 4 Sudoeste 0 -- -- 96
2021-01-14 22:00:00 5.7 2 Oeste 4 Oeste 0 -- -- 95
2021-01-14 21:00:00 6.3 3 Sur 8 Oeste 0 -- -- 92
2021-01-14 20:00:00 7.8 6 Oeste 16 Oeste 0 -- -- 90
2021-01-14 19:00:00 8.5 7 Oeste 14 Oeste 0 -- -- 86
2021-01-14 18:00:00 11.4 6 Oeste 17 Sudoeste 0 -- -- 69
2021-01-14 17:00:00 12.6 7 Sudoeste 20 Sudoeste 0 -- -- 70
2021-01-14 16:00:00 12.8 8 Sudoeste 22 Sudoeste 0 -- -- 70
2021-01-14 15:00:00 12.9 5 Oeste 18 Sudoeste 0 -- -- 65
2021-01-14 14:00:00 12.3 7 Sudoeste 19 Sudoeste 0 -- -- 62
2021-01-14 13:00:00 11.3 6 Sudoeste 17 Oeste 0 -- -- 63
2021-01-14 12:00:00 9.1 4 Sur 8 Sudoeste 0 -- -- 84
2021-01-14 11:00:00 6.7 3 Este 5 Sudeste 0 -- -- 84
2021-01-14 10:00:00 5.1 3 Sudeste 6 Este 0 -- -- 94
2021-01-14 09:00:00 2.7 0 Calma 3 Nordeste 0 -- -- 96
2021-01-14 08:00:00 2.6 0 Calma 4 Este 0 -- -- 96
2021-01-14 07:00:00 2.6 0 Calma 3 Sudeste 0 -- -- 95
2021-01-14 06:00:00 2.6 0 Calma 4 Este 0 -- -- 95
2021-01-14 05:00:00 2.8 0 Calma 4 Este 0 -- -- 94
2021-01-14 04:00:00 3.1 0 Calma 4 Este 0 -- -- 94
2021-01-14 03:00:00 3.4 0 Calma 4 Este 0 -- -- 94
2021-01-14 02:00:00 3.8 0 Calma 4 Este 0 -- -- 93
2021-01-14 01:00:00 4 0 Calma 4 Este 0 -- -- 92
2021-01-14 00:00:00 4.6 0 Calma 4 Sudeste 0 -- -- 90
2021-01-13 23:00:00 5.1 0 Calma 4 Este 0 -- -- 90
2021-01-13 22:00:00 6 2 Oeste 14 Oeste 0 -- -- 80
2021-01-13 21:00:00 7.4 7 Oeste 12 Oeste 0 -- -- 75
2021-01-13 20:00:00 8.3 2 Oeste 12 Norte 0 -- -- 69
2021-01-13 19:00:00 9.4 2 Oeste 11 Oeste 0 -- -- 69
2021-01-13 18:00:00 11.7 4 Noroeste 11 Oeste 0 -- -- 63
2021-01-13 17:00:00 13.4 4 Noroeste 10 Noroeste 0 -- -- 57
2021-01-13 16:00:00 13.4 4 Noroeste 13 Norte 0 -- -- 55
2021-01-13 15:00:00 13 5 Noroeste 15 Noroeste 0 -- -- 59
2021-01-13 14:00:00 12.2 5 Noroeste 13 Noroeste 0 -- -- 63
2021-01-13 13:00:00 10.7 6 Noroeste 13 Noroeste 0 -- -- 71
2021-01-13 12:00:00 8.9 3 Sudeste 6 Sur 0 -- -- 75
2021-01-13 11:00:00 7 2 Sudeste 8 Sudeste 0 -- -- 78
2021-01-13 10:00:00 5 3 Sudeste 6 Este 0 -- -- 88
2021-01-13 09:00:00 2.5 0 Calma 5 Sudeste 0 -- -- 97
2021-01-13 08:00:00 2.4 2 Este 7 Sudeste 0 -- -- 97
2021-01-13 07:00:00 2.4 0 Calma 3 Nordeste 0 -- -- 97
2021-01-13 06:00:00 2.4 0 Calma 4 Sudeste 0 -- -- 97
2021-01-13 05:00:00 2.8 0 Calma 8 Sudeste 0 -- -- 96
2021-01-13 04:00:00 3.2 0 Calma 10 Este 0 -- -- 95
2021-01-13 03:00:00 3.7 5 Sudeste 12 Este 0 -- -- 95
2021-01-13 02:00:00 4 2 Este 7 Este 0 -- -- 95
2021-01-13 01:00:00 4.4 0 Calma 6 Sudeste 0 -- -- 95
2021-01-13 00:00:00 4.7 0 Calma 13 Sudeste 0 -- -- 93
2021-01-12 23:00:00 5.2 3 Sudeste 10 Sudeste 0 -- -- 93
2021-01-12 22:00:00 6.1 0 Calma 5 Norte 0 -- -- 89
2021-01-12 21:00:00 6.9 2 Norte 5 Noroeste 0 -- -- 85
2021-01-12 20:00:00 8.7 0 Calma 15 Norte 0 -- -- 74
2021-01-12 19:00:00 9.2 7 Norte 14 Norte 0 -- -- 72
2021-01-12 18:00:00 10.7 3 Noroeste 14 Noroeste 0 -- -- 66
2021-01-12 17:00:00 12.5 5 Noroeste 18 Noroeste 0 -- -- 56
2021-01-12 16:00:00 12.9 6 Norte 16 Noroeste 0 -- -- 55
2021-01-12 15:00:00 13 5 Noroeste 18 Norte 0 -- -- 58
2021-01-12 14:00:00 12.7 6 Norte 16 Nordeste 0 -- -- 60
2021-01-12 13:00:00 10.6 3 Sudeste 7 Sudeste 0 -- -- 75
2021-01-12 12:00:00 8.7 3 Sudeste 6 Sudeste 0 -- -- 78
2021-01-12 11:00:00 6.5 2 Este 8 Sudeste 0 -- -- 92
2021-01-12 10:00:00 3.7 0 Calma 6 Sudeste 0 -- -- 99
2021-01-12 09:00:00 2.4 2 Sur 6 Sudeste 0 -- -- 99
2021-01-12 08:00:00 2.2 2 Sudeste 6 Sudeste 0 -- -- 98
2021-01-12 07:00:00 2.5 0 Calma 5 Sudeste 0 -- -- 98
2021-01-12 06:00:00 2.7 0 Calma 5 Este 0 -- -- 98
2021-01-12 05:00:00 3 0 Calma 5 Este 0 -- -- 98
2021-01-12 04:00:00 3.1 0 Calma 5 Sudeste 0 -- -- 98
2021-01-12 03:00:00 3.5 0 Calma 6 Este 0 -- -- 97
2021-01-12 02:00:00 4.2 0 Calma 6 Nordeste 0 -- -- 97
2021-01-12 01:00:00 4.4 0 Calma 3 Sudeste 0 -- -- 97
2021-01-12 00:00:00 5 0 Calma 3 Sudoeste 0 -- -- 96
2021-01-11 23:00:00 5.4 0 Calma 4 Norte 0 -- -- 95
2021-01-11 22:00:00 5.9 0 Calma 5 Norte 0 -- -- 93
2021-01-11 21:00:00 6.4 0 Calma 5 Nordeste 0 -- -- 91
2021-01-11 20:00:00 7 2 Nordeste 11 Norte 0 -- -- 86
2021-01-11 19:00:00 7.6 4 Norte 10 Norte 0 -- -- 84
2021-01-11 18:00:00 9.6 3 Noroeste 18 Nordeste 0 -- -- 75
2021-01-11 17:00:00 10.9 4 Norte 21 Noroeste 0 -- -- 69
2021-01-11 16:00:00 11.3 6 Noroeste 16 Noroeste 0 -- -- 67
2021-01-11 15:00:00 11.2 3 Norte 11 Norte 0 -- -- 69
2021-01-11 14:00:00 10.5 4 Noroeste 12 Noroeste 0 -- -- 71
2021-01-11 13:00:00 9.6 5 Sudeste 8 Sudeste 0 -- -- 76
2021-01-11 12:00:00 8.6 4 Sudeste 9 Este 0 -- -- 79
2021-01-11 11:00:00 7.4 4 Este 8 Este 0 -- -- 86
2021-01-11 10:00:00 5.6 3 Este 8 Sudeste 0 -- -- 97
2021-01-11 09:00:00 2.9 0 Calma 7 Norte 0 -- -- 97
2021-01-11 08:00:00 3.2 0 Calma 11 Noroeste 0 -- -- 97
2021-01-11 07:00:00 3.6 0 Calma 7 Sudeste 0 -- -- 97
2021-01-11 06:00:00 3.4 0 Calma 6 Sudoeste 0 -- -- 97
2021-01-11 05:00:00 3 2 Oeste 17 Noroeste 0 -- -- 96
2021-01-11 04:00:00 3.8 2 Sudeste 7 Sudeste 0 -- -- 96
2021-01-11 03:00:00 4.1 0 Calma 6 Este 0 -- -- 96
2021-01-11 02:00:00 4.2 0 Calma 4 Este 0 -- -- 94
2021-01-11 01:00:00 4.4 0 Calma 7 Este 0 -- -- 91
2021-01-11 00:00:00 4.5 2 Nordeste 6 Sudeste 0 -- -- 92
2021-01-10 23:00:00 5 2 Noroeste 5 Norte 0 -- -- 91
2021-01-10 22:00:00 5.1 0 Calma 5 Este 0 -- -- 90
2021-01-10 21:00:00 6.2 0 Calma 14 Norte 0 -- -- 83
2021-01-10 20:00:00 6.3 8 Norte 14 Norte 0 -- -- 78
2021-01-10 19:00:00 6.5 2 Noroeste 10 Noroeste 0 -- -- 82
2021-01-10 18:00:00 7.3 4 Noroeste 10 Oeste 0 -- -- 73
2021-01-10 17:00:00 8.5 3 Noroeste 6 Este 0 -- -- 67
2021-01-10 16:00:00 8.5 2 Este 6 Este 0 -- -- 67
2021-01-10 15:00:00 7.3 2 Este 6 Este 0 -- -- 79
2021-01-10 14:00:00 6.8 0 Calma 9 Sudeste 0 -- -- 81
2021-01-10 13:00:00 6.5 3 Este 14 Sudeste 0 -- -- 83
2021-01-10 12:00:00 6.2 6 Sudeste 10 Sudeste 0 -- -- 86
2021-01-10 11:00:00 5.3 3 Este 7 Nordeste 0 -- -- 94
2021-01-10 10:00:00 4.4 0 Calma 10 Oeste 0 -- -- 97
2021-01-10 09:00:00 4.3 3 Noroeste 8 Oeste 0.2 -- -- 96
2021-01-10 08:00:00 4.3 0 Calma 3 Norte 0.2 -- -- 96
2021-01-10 07:00:00 4.4 0 Calma 6 Noroeste 0.4 -- -- 95
2021-01-10 06:00:00 4.7 8 Noroeste 12 Oeste 0.2 -- -- 89
2021-01-10 05:00:00 4.7 5 Noroeste 12 Noroeste 0 -- -- 89
2021-01-10 04:00:00 4.4 0 Calma 3 Noroeste 0 -- -- 94
2021-01-10 03:00:00 3.5 3 Sudoeste 6 Sur 0 -- -- 93
2021-01-10 02:00:00 4.1 2 Oeste 8 Oeste 0 -- -- 93
2021-01-10 01:00:00 4.6 4 Oeste 11 Oeste 0 -- -- 96
2021-01-10 00:00:00 5.2 5 Oeste 12 Noroeste 0 -- -- 96
2021-01-09 23:00:00 5.4 5 Noroeste 13 Oeste 0 -- -- 96
2021-01-09 22:00:00 5.7 0 Calma 5 Este 0 -- -- 96
2021-01-09 21:00:00 6 0 Calma 5 Sudeste 0 -- -- 95
2021-01-09 20:00:00 6.9 3 Sudeste 14 Sudeste 0.6 -- -- 93
2021-01-09 19:00:00 7.4 4 Este 13 Sudeste 0.6 -- -- 94
2021-01-09 18:00:00 7.2 3 Sudeste 8 Este 1.2 -- -- 92
2021-01-09 17:00:00 7.9 2 Sudeste 25 Sur 2.2 -- -- 82
2021-01-09 16:00:00 11.4 8 Sudoeste 20 Sudoeste 0 -- -- 49
2021-01-09 15:00:00 11.5 11 Sudoeste 31 Sudoeste 0 -- -- 48
2021-01-09 14:00:00 11.2 12 Sur 32 Sudoeste 0 -- -- 48
2021-01-09 13:00:00 10.9 10 Sudoeste 28 Sudoeste 0 -- -- 66
2021-01-09 12:00:00 9.9 11 Sudoeste 22 Oeste 0 -- -- 68
2021-01-09 11:00:00 8.4 3 Sudeste 5 Sur 0 -- -- 79
2021-01-09 10:00:00 5.2 0 Calma 3 Sudoeste 0 -- -- 94
2021-01-09 09:00:00 4 2 Sudoeste 11 Sur 0 -- -- 93
2021-01-09 08:00:00 5.4 3 Sudoeste 11 Sur 0 -- -- 89
2021-01-09 07:00:00 5.9 2 Oeste 10 Sur 0 -- -- 87
2021-01-09 06:00:00 6.5 3 Sur 9 Sur 0 -- -- 89
2021-01-09 05:00:00 6.7 4 Sur 15 Sudoeste 0 -- -- 90
2021-01-09 04:00:00 7.4 4 Sur 19 Sudoeste 0 -- -- 94
2021-01-09 03:00:00 8 7 Sur 19 Sudoeste 0 -- -- 98
2021-01-09 02:00:00 8.1 3 Sur 13 Oeste 0 -- -- 98
2021-01-09 01:00:00 8.4 4 Sudoeste 10 Sudoeste 0.2 -- -- 98
2021-01-09 00:00:00 8.2 4 Sudoeste 13 Sur 0 -- -- 98
2021-01-08 23:00:00 7.9 6 Sudoeste 14 Sudoeste 0 -- -- 98
2021-01-08 22:00:00 8.7 3 Este 23 Sudoeste 0.2 -- -- 97
2021-01-08 21:00:00 10 9 Sudoeste 28 Sudoeste 0 -- -- 96
2021-01-08 20:00:00 11.8 12 Oeste 33 Sur 2.8 -- -- 94
2021-01-08 19:00:00 13.9 18 Sur 49 Sur 6.6 -- -- 94
2021-01-08 18:00:00 14.5 24 Sur 45 Sur 1.2 -- -- 88
2021-01-08 17:00:00 15 18 Sudeste 50 Sur 0.2 -- -- 85
2021-01-08 16:00:00 14.5 17 Sur 35 Sudeste 0 -- -- 87
2021-01-08 15:00:00 14.8 18 Sur 43 Sudeste 0 -- -- 85
2021-01-08 14:00:00 14.7 21 Sur 42 Sudeste 0 -- -- 84
2021-01-08 13:00:00 13.3 25 Sudeste 51 Sudeste 1.2 -- -- 88
2021-01-08 12:00:00 12.8 30 Sudeste 48 Sudeste 1.2 -- -- 89
2021-01-08 11:00:00 11 10 Sudeste 22 Sudeste 0.6 -- -- 98
2021-01-08 10:00:00 9.8 2 Noroeste 9 Noroeste 1 -- -- 98
2021-01-08 09:00:00 9.5 4 Norte 13 Noroeste 0.2 -- -- 98
2021-01-08 08:00:00 10.2 0 Calma 6 Este 1.2 -- -- 99
2021-01-08 07:00:00 9.2 3 Nordeste 10 Nordeste 4 -- -- 99
2021-01-08 06:00:00 9.2 0 Calma 4 Norte 1 -- -- 99
2021-01-08 05:00:00 9.4 0 Calma 8 Sudeste 0.8 -- -- 99
2021-01-08 04:00:00 9.2 0 Calma 10 Norte 0.4 -- -- 99
2021-01-08 03:00:00 8.9 0 Calma 4 Nordeste 0 -- -- 99
2021-01-08 02:00:00 8.6 0 Calma 10 Este 1 -- -- 99
2021-01-08 01:00:00 8.9 0 Calma 5 Sur 1.2 -- -- 98
2021-01-08 00:00:00 9 0 Calma 5 Este 2 -- -- 98
2021-01-07 23:00:00 9.1 2 Norte 8 Nordeste 2.4 -- -- 98
2021-01-07 22:00:00 9.2 0 Calma 5 Nordeste 3.6 -- -- 98
2021-01-07 21:00:00 9.2 0 Calma 9 Oeste 3.2 -- -- 98
2021-01-07 20:00:00 9.3 0 Calma 9 Norte 1.8 -- -- 98
2021-01-07 19:00:00 9.5 0 Calma 5 Norte 1.6 -- -- 98
2021-01-07 18:00:00 9.7 0 Calma 6 Sudeste 0.6 -- -- 98
2021-01-07 17:00:00 9.5 3 Este 9 Este 0.2 -- -- 98
2021-01-07 16:00:00 9.3 2 Este 13 Nordeste 0.6 -- -- 98
2021-01-07 15:00:00 9 3 Este 8 Este 1.4 -- -- 98
2021-01-07 14:00:00 8.7 2 Este 11 Norte 0.6 -- -- 98
2021-01-07 13:00:00 8.3 4 Norte 13 Norte 0.6 -- -- 97
2021-01-07 12:00:00 8.4 4 Noroeste 9 Noroeste 0.8 -- -- 97
2021-01-07 11:00:00 8.4 2 Nordeste 10 Sudeste 0.2 -- -- 97
2021-01-07 10:00:00 8.3 0 Calma 10 Nordeste 0.8 -- -- 97
2021-01-07 09:00:00 8.1 2 Noroeste 13 Nordeste 0.6 -- -- 96
2021-01-07 08:00:00 8.1 4 Norte 18 Norte 0 -- -- 95
2021-01-07 07:00:00 8.5 2 Noroeste 7 Este 0 -- -- 95
2021-01-07 06:00:00 8.4 3 Noroeste 12 Nordeste 0.2 -- -- 95
2021-01-07 05:00:00 8.5 3 Noroeste 16 Nordeste 0.2 -- -- 94
2021-01-07 04:00:00 8.5 4 Norte 10 Norte 0.2 -- -- 92
2021-01-07 03:00:00 8.7 2 Oeste 12 Noroeste 0 -- -- 92
2021-01-07 02:00:00 8.8 5 Noroeste 17 Norte 0 -- -- 93
2021-01-07 01:00:00 8.6 2 Noroeste 16 Nordeste 0.4 -- -- 96
2021-01-07 00:00:00 8.7 2 Noroeste 16 Nordeste 1.8 -- -- 96
2021-01-06 23:00:00 8.9 3 Noroeste 14 Norte 1.4 -- -- 95
2021-01-06 22:00:00 9.2 3 Noroeste 13 Norte 1 -- -- 95
2021-01-06 21:00:00 9.3 3 Noroeste 11 Este 3.2 -- -- 94
2021-01-06 20:00:00 10.1 4 Este 21 Este 1.4 -- -- 91
2021-01-06 19:00:00 10.9 11 Este 22 Este 1.4 -- -- 89
2021-01-06 18:00:00 12 15 Sudeste 28 Sudeste 0 -- -- 78
2021-01-06 17:00:00 12.7 21 Sudeste 36 Sudeste 0 -- -- 73
2021-01-06 16:00:00 12.8 20 Sudeste 35 Sudeste 0 -- -- 74
2021-01-06 15:00:00 13.5 15 Sudeste 36 Sudeste 0 -- -- 68
2021-01-06 14:00:00 13 21 Sudeste 32 Sudeste 0 -- -- 72
2021-01-06 13:00:00 13.5 9 Sudeste 24 Sudeste 0 -- -- 68
2021-01-06 12:00:00 11.2 3 Norte 8 Este 0 -- -- 79
2021-01-06 11:00:00 8.7 2 Sur 9 Sudeste 0 -- -- 88
2021-01-06 10:00:00 6.9 0 Calma 12 Sudeste 0 -- -- 92
2021-01-06 09:00:00 5.6 4 Sudeste 10 Sudeste 0 -- -- 97
2021-01-06 08:00:00 5.2 0 Calma 10 Sudeste 0 -- -- 97
2021-01-06 07:00:00 5.2 3 Sudeste 8 Sudeste 0 -- -- 97
2021-01-06 06:00:00 5.1 2 Este 6 Sudeste 0 -- -- 97
2021-01-06 05:00:00 5.1 0 Calma 5 Oeste 0 -- -- 96
2021-01-06 04:00:00 5.2 2 Sudoeste 4 Sudoeste 0 -- -- 96
2021-01-06 03:00:00 5.6 0 Calma 3 Sudeste 0 -- -- 95
2021-01-06 02:00:00 6.1 0 Calma 5 Sudoeste 0 -- -- 94
2021-01-06 01:00:00 6.6 0 Calma 4 Sudoeste 0 -- -- 93
2021-01-06 00:00:00 7 3 Sudoeste 6 Sudoeste 0 -- -- 88
2021-01-05 23:00:00 7.9 0 Calma 6 Sudoeste 0 -- -- 86
2021-01-05 22:00:00 8.7 2 Noroeste 5 Norte 0 -- -- 81
2021-01-05 21:00:00 9.8 0 Calma 5 Oeste 0 -- -- 75
2021-01-05 20:00:00 10.2 0 Calma 12 Sudeste 0 -- -- 71
2021-01-05 19:00:00 10.6 2 Norte 8 Norte 0 -- -- 66
2021-01-05 18:00:00 11.2 2 Norte 6 Norte 0 -- -- 66
2021-01-05 17:00:00 12.1 0 Calma 6 Noroeste 0 -- -- 64
2021-01-05 16:00:00 12.4 3 Noroeste 9 Noroeste 0 -- -- 64
2021-01-05 15:00:00 12.3 0 Calma 4 Sur 0 -- -- 65
2021-01-05 14:00:00 11.7 3 Sudeste 5 Este 0 -- -- 70
2021-01-05 13:00:00 11 3 Sudeste 10 Sudeste 0 -- -- 75
2021-01-05 12:00:00 10.2 6 Sudeste 11 Sudeste 0 -- -- 79
2021-01-05 11:00:00 9.2 7 Sudeste 12 Sudeste 0 -- -- 81
2021-01-05 10:00:00 7.3 3 Este 7 Sudeste 0 -- -- 89
2021-01-05 09:00:00 5.7 0 Calma 3 Este 0 -- -- 93
2021-01-05 08:00:00 5.9 0 Calma 4 Noroeste 0 -- -- 91
2021-01-05 07:00:00 5.9 0 Calma 3 Este 0 -- -- 91
2021-01-05 06:00:00 6.3 0 Calma 4 Sudeste 0 -- -- 89
2021-01-05 05:00:00 6.2 0 Calma 3 Nordeste 0 -- -- 88
2021-01-05 04:00:00 6.4 0 Calma 3 Este 0 -- -- 86
2021-01-05 03:00:00 6.2 0 Calma 4 Este 0 -- -- 86
2021-01-05 02:00:00 5.9 0 Calma 4 Norte 0 -- -- 87
2021-01-05 01:00:00 6.4 0 Calma 7 Sudeste 0 -- -- 86
2021-01-05 00:00:00 6.2 0 Calma 6 Este 0 -- -- 84
2021-01-04 23:00:00 6 0 Calma 4 Sudeste 0 -- -- 89
2021-01-04 22:00:00 5.9 0 Calma 4 Este 0 -- -- 84
2021-01-04 21:00:00 7 0 Calma 6 Oeste 0 -- -- 83
2021-01-04 20:00:00 8.2 3 Oeste 7 Oeste 0 -- -- 65
2021-01-04 19:00:00 8.4 5 Oeste 7 Oeste 0 -- -- 64
2021-01-04 18:00:00 10.4 3 Noroeste 13 Norte 0 -- -- 57
2021-01-04 17:00:00 12 5 Noroeste 17 Norte 0 -- -- 49
2021-01-04 16:00:00 12.3 5 Noroeste 18 Noroeste 0 -- -- 49
2021-01-04 15:00:00 12.1 4 Norte 15 Oeste 0 -- -- 52
2021-01-04 14:00:00 11.4 5 Noroeste 15 Norte 0 -- -- 56
2021-01-04 13:00:00 10.8 5 Norte 11 Norte 0 -- -- 58
2021-01-04 12:00:00 8.3 4 Sudeste 6 Sudeste 0 -- -- 77
2021-01-04 11:00:00 6.6 3 Sudeste 6 Este 0 -- -- 81
2021-01-04 10:00:00 4.5 2 Este 5 Sudeste 0 -- -- 93
2021-01-04 09:00:00 2.1 0 Calma 7 Este 0 -- -- 97
2021-01-04 08:00:00 2 0 Calma 6 Sudeste 0 -- -- 96
2021-01-04 07:00:00 2.1 0 Calma 3 Sudeste 0 -- -- 96
2021-01-04 06:00:00 2.3 0 Calma 4 Sudeste 0 -- -- 95
2021-01-04 05:00:00 2.5 0 Calma 5 Sudeste 0 -- -- 94
2021-01-04 04:00:00 2.2 0 Calma 3 Nordeste 0 -- -- 93
2021-01-04 03:00:00 2.6 0 Calma 4 Sudeste 0 -- -- 93
2021-01-04 02:00:00 3.1 0 Calma 3 Sudeste 0 -- -- 91
2021-01-04 01:00:00 3.4 0 Calma 3 Este 0 -- -- 88
2021-01-04 00:00:00 3.7 0 Calma 6 Este 0 -- -- 85
2021-01-03 23:00:00 4 0 Calma 4 Sudeste 0 -- -- 84
2021-01-03 22:00:00 5.1 0 Calma 6 Sudeste 0 -- -- 82
2021-01-03 21:00:00 5.9 0 Calma 8 Oeste 0 -- -- 77
2021-01-03 20:00:00 6.5 5 Oeste 8 Oeste 0 -- -- 66
2021-01-03 19:00:00 7.2 4 Oeste 10 Sudoeste 0 -- -- 60
2021-01-03 18:00:00 9.6 3 Oeste 11 Noroeste 0 -- -- 43
2021-01-03 17:00:00 11.5 4 Noroeste 15 Noroeste 0 -- -- 34
2021-01-03 16:00:00 11.7 6 Noroeste 14 Oeste 0 -- -- 33
2021-01-03 15:00:00 11.6 6 Noroeste 13 Oeste 0 -- -- 40
2021-01-03 14:00:00 11 4 Noroeste 10 Norte 0 -- -- 49
2021-01-03 13:00:00 9.8 4 Sudeste 7 Sudeste 0 -- -- 65
2021-01-03 12:00:00 7.9 2 Sur 6 Sudeste 0 -- -- 74
2021-01-03 11:00:00 6.1 3 Sur 6 Sudeste 0 -- -- 80
2021-01-03 10:00:00 3.8 2 Este 8 Sudeste 0 -- -- 90
2021-01-03 09:00:00 1.2 0 Calma 4 Este 0 -- -- 97
2021-01-03 08:00:00 1.2 0 Calma 4 Este 0 -- -- 97
2021-01-03 07:00:00 1.7 0 Calma 5 Sudeste 0 -- -- 97
2021-01-03 06:00:00 1.7 0 Calma 5 Sudeste 0 -- -- 97
2021-01-03 05:00:00 2.7 0 Calma 3 Sur 0 -- -- 96
2021-01-03 04:00:00 2.8 0 Calma 2 Oeste 0 -- -- 96
2021-01-03 03:00:00 3.3 0 Calma 3 Este 0 -- -- 95
2021-01-03 02:00:00 3.9 0 Calma 4 Este 0 -- -- 94
2021-01-03 01:00:00 4.1 0 Calma 4 Nordeste 0 -- -- 91
2021-01-03 00:00:00 4.7 0 Calma 5 Este 0 -- -- 88
2021-01-02 23:00:00 5.8 0 Calma 20 Nordeste 0 -- -- 80
2021-01-02 22:00:00 5.7 4 Norte 10 Norte 0 -- -- 84
2021-01-02 21:00:00 5.8 0 Calma 5 Noroeste 0 -- -- 87
2021-01-02 20:00:00 6 0 Calma 6 Oeste 0 -- -- 83
2021-01-02 19:00:00 7.7 0 Calma 9 Noroeste 0 -- -- 74
2021-01-02 18:00:00 9.2 2 Oeste 12 Norte 0 -- -- 65
2021-01-02 17:00:00 10.7 4 Norte 19 Oeste 0 -- -- 57
2021-01-02 16:00:00 10.9 4 Noroeste 17 Oeste 0 -- -- 55
2021-01-02 15:00:00 10.6 5 Norte 16 Noroeste 0 -- -- 60
2021-01-02 14:00:00 9.9 5 Norte 14 Noroeste 0 -- -- 68